sensor_id;sensor_type;location;lat;lon;timestamp;P1;durP1;ratioP1;P2;durP2;ratioP2
75090;SDS011;63674;48.048;8.306;2023-02-22T00:01:01;8.05;;;2.20;;
75090;SDS011;63674;48.048;8.306;2023-02-22T00:03:47;7.50;;;2.30;;
75090;SDS011;63674;48.048;8.306;2023-02-22T00:06:18;7.70;;;2.65;;
75090;SDS011;63674;48.048;8.306;2023-02-22T00:08:52;6.83;;;2.47;;
75090;SDS011;63674;48.048;8.306;2023-02-22T00:11:21;7.03;;;2.13;;
75090;SDS011;63674;48.048;8.306;2023-02-22T00:13:50;7.20;;;2.40;;
75090;SDS011;63674;48.048;8.306;2023-02-22T00:16:23;7.82;;;2.38;;
75090;SDS011;63674;48.048;8.306;2023-02-22T00:18:53;7.15;;;2.60;;
75090;SDS011;63674;48.048;8.306;2023-02-22T00:21:21;4.97;;;1.70;;
75090;SDS011;63674;48.048;8.306;2023-02-22T00:23:51;5.80;;;2.13;;
75090;SDS011;63674;48.048;8.306;2023-02-22T00:26:20;6.35;;;2.15;;
75090;SDS011;63674;48.048;8.306;2023-02-22T00:28:50;7.72;;;1.92;;
75090;SDS011;63674;48.048;8.306;2023-02-22T00:31:20;7.50;;;1.95;;
75090;SDS011;63674;48.048;8.306;2023-02-22T00:33:49;6.23;;;2.03;;
75090;SDS011;63674;48.048;8.306;2023-02-22T00:36:17;6.22;;;2.10;;
75090;SDS011;63674;48.048;8.306;2023-02-22T00:38:46;6.20;;;2.42;;
75090;SDS011;63674;48.048;8.306;2023-02-22T00:41:16;7.53;;;2.60;;
75090;SDS011;63674;48.048;8.306;2023-02-22T00:43:45;7.22;;;2.70;;
75090;SDS011;63674;48.048;8.306;2023-02-22T00:46:14;5.57;;;1.83;;
75090;SDS011;63674;48.048;8.306;2023-02-22T00:48:42;5.82;;;2.10;;
75090;SDS011;63674;48.048;8.306;2023-02-22T00:51:11;6.13;;;2.05;;
75090;SDS011;63674;48.048;8.306;2023-02-22T00:53:40;6.68;;;2.50;;
75090;SDS011;63674;48.048;8.306;2023-02-22T00:56:08;5.93;;;2.00;;
75090;SDS011;63674;48.048;8.306;2023-02-22T00:58:38;6.60;;;1.80;;
75090;SDS011;63674;48.048;8.306;2023-02-22T01:01:07;6.80;;;1.83;;
75090;SDS011;63674;48.048;8.306;2023-02-22T01:03:35;7.63;;;1.90;;
75090;SDS011;63674;48.048;8.306;2023-02-22T01:06:06;6.43;;;2.10;;
75090;SDS011;63674;48.048;8.306;2023-02-22T01:08:35;6.70;;;1.95;;
75090;SDS011;63674;48.048;8.306;2023-02-22T01:11:04;5.57;;;1.87;;
75090;SDS011;63674;48.048;8.306;2023-02-22T01:13:32;5.70;;;1.77;;
75090;SDS011;63674;48.048;8.306;2023-02-22T01:16:03;7.97;;;2.13;;
75090;SDS011;63674;48.048;8.306;2023-02-22T01:18:33;7.80;;;2.03;;
75090;SDS011;63674;48.048;8.306;2023-02-22T01:21:02;5.80;;;1.95;;
75090;SDS011;63674;48.048;8.306;2023-02-22T01:23:32;8.03;;;2.40;;
75090;SDS011;63674;48.048;8.306;2023-02-22T01:26:00;5.70;;;1.55;;
75090;SDS011;63674;48.048;8.306;2023-02-22T01:28:31;5.95;;;1.70;;
75090;SDS011;63674;48.048;8.306;2023-02-22T01:31:00;5.75;;;1.85;;
75090;SDS011;63674;48.048;8.306;2023-02-22T01:33:30;6.78;;;2.00;;
75090;SDS011;63674;48.048;8.306;2023-02-22T01:35:59;4.77;;;1.67;;
75090;SDS011;63674;48.048;8.306;2023-02-22T01:38:29;5.25;;;1.50;;
75090;SDS011;63674;48.048;8.306;2023-02-22T01:40:57;5.32;;;1.80;;
75090;SDS011;63674;48.048;8.306;2023-02-22T01:43:27;5.20;;;1.75;;
75090;SDS011;63674;48.048;8.306;2023-02-22T01:45:59;6.55;;;2.00;;
75090;SDS011;63674;48.048;8.306;2023-02-22T01:48:32;4.63;;;1.47;;
75090;SDS011;63674;48.048;8.306;2023-02-22T01:51:07;5.00;;;1.50;;
75090;SDS011;63674;48.048;8.306;2023-02-22T01:53:42;5.65;;;1.60;;
75090;SDS011;63674;48.048;8.306;2023-02-22T01:56:15;6.65;;;2.28;;
75090;SDS011;63674;48.048;8.306;2023-02-22T01:58:47;5.55;;;1.98;;
75090;SDS011;63674;48.048;8.306;2023-02-22T02:01:19;5.10;;;1.57;;
75090;SDS011;63674;48.048;8.306;2023-02-22T02:03:53;5.55;;;1.60;;
75090;SDS011;63674;48.048;8.306;2023-02-22T02:06:25;4.93;;;1.90;;
75090;SDS011;63674;48.048;8.306;2023-02-22T02:09:00;6.20;;;1.90;;
75090;SDS011;63674;48.048;8.306;2023-02-22T02:11:36;4.85;;;1.67;;
75090;SDS011;63674;48.048;8.306;2023-02-22T02:14:07;7.93;;;2.00;;
75090;SDS011;63674;48.048;8.306;2023-02-22T02:16:39;5.55;;;1.98;;
75090;SDS011;63674;48.048;8.306;2023-02-22T02:19:14;4.70;;;1.65;;
75090;SDS011;63674;48.048;8.306;2023-02-22T02:25:10;5.43;;;1.67;;
75090;SDS011;63674;48.048;8.306;2023-02-22T02:31:33;5.30;;;1.50;;
75090;SDS011;63674;48.048;8.306;2023-02-22T02:34:38;5.43;;;1.60;;
75090;SDS011;63674;48.048;8.306;2023-02-22T02:37:18;5.18;;;1.70;;
75090;SDS011;63674;48.048;8.306;2023-02-22T02:39:55;6.45;;;1.92;;
75090;SDS011;63674;48.048;8.306;2023-02-22T02:42:33;5.10;;;1.50;;
75090;SDS011;63674;48.048;8.306;2023-02-22T02:45:08;4.80;;;1.50;;
75090;SDS011;63674;48.048;8.306;2023-02-22T02:47:41;4.80;;;1.75;;
75090;SDS011;63674;48.048;8.306;2023-02-22T02:50:18;5.68;;;1.67;;
75090;SDS011;63674;48.048;8.306;2023-02-22T02:52:52;5.47;;;1.83;;
75090;SDS011;63674;48.048;8.306;2023-02-22T02:55:24;6.90;;;1.77;;
75090;SDS011;63674;48.048;8.306;2023-02-22T02:57:56;6.68;;;1.70;;
75090;SDS011;63674;48.048;8.306;2023-02-22T03:00:28;5.20;;;1.60;;
75090;SDS011;63674;48.048;8.306;2023-02-22T03:03:06;6.20;;;1.77;;
75090;SDS011;63674;48.048;8.306;2023-02-22T03:05:59;5.45;;;1.90;;
75090;SDS011;63674;48.048;8.306;2023-02-22T03:08:56;5.17;;;1.43;;
75090;SDS011;63674;48.048;8.306;2023-02-22T03:11:37;5.72;;;1.63;;
75090;SDS011;63674;48.048;8.306;2023-02-22T03:14:18;5.10;;;1.63;;
75090;SDS011;63674;48.048;8.306;2023-02-22T03:16:59;5.43;;;1.52;;
75090;SDS011;63674;48.048;8.306;2023-02-22T03:19:32;7.40;;;1.50;;
75090;SDS011;63674;48.048;8.306;2023-02-22T03:22:08;6.57;;;1.60;;
75090;SDS011;63674;48.048;8.306;2023-02-22T03:24:41;5.75;;;2.00;;
75090;SDS011;63674;48.048;8.306;2023-02-22T03:27:19;6.07;;;1.95;;
75090;SDS011;63674;48.048;8.306;2023-02-22T03:29:54;5.45;;;1.80;;
75090;SDS011;63674;48.048;8.306;2023-02-22T03:32:29;5.35;;;1.50;;
75090;SDS011;63674;48.048;8.306;2023-02-22T03:35:04;4.90;;;1.60;;
75090;SDS011;63674;48.048;8.306;2023-02-22T03:37:39;5.63;;;1.67;;
75090;SDS011;63674;48.048;8.306;2023-02-22T03:40:13;6.60;;;2.00;;
75090;SDS011;63674;48.048;8.306;2023-02-22T03:42:52;5.20;;;1.70;;
75090;SDS011;63674;48.048;8.306;2023-02-22T03:45:26;5.95;;;1.60;;
75090;SDS011;63674;48.048;8.306;2023-02-22T03:47:57;4.73;;;1.50;;
75090;SDS011;63674;48.048;8.306;2023-02-22T03:50:32;4.97;;;1.52;;
75090;SDS011;63674;48.048;8.306;2023-02-22T03:53:05;5.07;;;1.70;;
75090;SDS011;63674;48.048;8.306;2023-02-22T03:55:34;5.78;;;1.60;;
75090;SDS011;63674;48.048;8.306;2023-02-22T03:58:04;5.35;;;1.70;;
75090;SDS011;63674;48.048;8.306;2023-02-22T04:00:36;5.87;;;2.00;;
75090;SDS011;63674;48.048;8.306;2023-02-22T04:03:10;6.05;;;1.95;;
75090;SDS011;63674;48.048;8.306;2023-02-22T04:05:39;6.13;;;1.70;;
75090;SDS011;63674;48.048;8.306;2023-02-22T04:08:09;6.00;;;1.95;;
75090;SDS011;63674;48.048;8.306;2023-02-22T04:10:37;6.18;;;1.90;;
75090;SDS011;63674;48.048;8.306;2023-02-22T04:13:06;6.63;;;1.97;;
75090;SDS011;63674;48.048;8.306;2023-02-22T04:15:35;5.47;;;1.63;;
75090;SDS011;63674;48.048;8.306;2023-02-22T04:18:04;6.30;;;2.05;;
75090;SDS011;63674;48.048;8.306;2023-02-22T04:20:32;5.63;;;1.98;;
75090;SDS011;63674;48.048;8.306;2023-02-22T04:23:01;5.93;;;1.92;;
75090;SDS011;63674;48.048;8.306;2023-02-22T04:25:31;7.93;;;2.10;;
75090;SDS011;63674;48.048;8.306;2023-02-22T04:27:59;6.07;;;1.92;;
75090;SDS011;63674;48.048;8.306;2023-02-22T04:30:28;5.60;;;1.75;;
75090;SDS011;63674;48.048;8.306;2023-02-22T04:32:56;5.53;;;1.90;;
75090;SDS011;63674;48.048;8.306;2023-02-22T04:35:25;6.75;;;1.80;;
75090;SDS011;63674;48.048;8.306;2023-02-22T04:37:53;5.10;;;1.80;;
75090;SDS011;63674;48.048;8.306;2023-02-22T04:40:22;8.88;;;1.70;;
75090;SDS011;63674;48.048;8.306;2023-02-22T04:42:52;4.97;;;1.67;;
75090;SDS011;63674;48.048;8.306;2023-02-22T04:45:21;5.32;;;1.60;;
75090;SDS011;63674;48.048;8.306;2023-02-22T04:47:49;6.10;;;1.88;;
75090;SDS011;63674;48.048;8.306;2023-02-22T04:50:18;5.07;;;1.37;;
75090;SDS011;63674;48.048;8.306;2023-02-22T04:52:47;5.28;;;1.58;;
75090;SDS011;63674;48.048;8.306;2023-02-22T04:55:16;5.97;;;1.80;;
75090;SDS011;63674;48.048;8.306;2023-02-22T04:57:45;5.03;;;1.67;;
75090;SDS011;63674;48.048;8.306;2023-02-22T05:00:16;7.68;;;1.55;;
75090;SDS011;63674;48.048;8.306;2023-02-22T05:02:47;4.90;;;1.50;;
75090;SDS011;63674;48.048;8.306;2023-02-22T05:05:18;6.28;;;1.55;;
75090;SDS011;63674;48.048;8.306;2023-02-22T05:07:48;4.78;;;1.70;;
75090;SDS011;63674;48.048;8.306;2023-02-22T05:10:18;4.97;;;1.50;;
75090;SDS011;63674;48.048;8.306;2023-02-22T05:12:46;5.90;;;1.80;;
75090;SDS011;63674;48.048;8.306;2023-02-22T05:15:17;5.33;;;1.53;;
75090;SDS011;63674;48.048;8.306;2023-02-22T05:17:48;5.07;;;1.70;;
75090;SDS011;63674;48.048;8.306;2023-02-22T05:20:20;5.10;;;1.60;;
75090;SDS011;63674;48.048;8.306;2023-02-22T05:22:53;5.90;;;1.60;;
75090;SDS011;63674;48.048;8.306;2023-02-22T05:25:21;4.60;;;1.40;;
75090;SDS011;63674;48.048;8.306;2023-02-22T05:27:51;5.53;;;1.43;;
75090;SDS011;63674;48.048;8.306;2023-02-22T05:30:23;4.70;;;1.40;;
75090;SDS011;63674;48.048;8.306;2023-02-22T05:32:53;5.28;;;1.80;;
75090;SDS011;63674;48.048;8.306;2023-02-22T05:35:23;5.47;;;1.70;;
75090;SDS011;63674;48.048;8.306;2023-02-22T05:37:52;5.80;;;1.70;;
75090;SDS011;63674;48.048;8.306;2023-02-22T05:40:22;5.80;;;1.40;;
75090;SDS011;63674;48.048;8.306;2023-02-22T05:42:53;4.70;;;1.50;;
75090;SDS011;63674;48.048;8.306;2023-02-22T05:45:25;6.22;;;1.63;;
75090;SDS011;63674;48.048;8.306;2023-02-22T05:47:54;6.57;;;2.10;;
75090;SDS011;63674;48.048;8.306;2023-02-22T05:50:24;6.18;;;1.70;;
75090;SDS011;63674;48.048;8.306;2023-02-22T05:52:53;5.77;;;1.77;;
75090;SDS011;63674;48.048;8.306;2023-02-22T05:55:22;5.45;;;1.60;;
75090;SDS011;63674;48.048;8.306;2023-02-22T05:57:52;5.45;;;1.88;;
75090;SDS011;63674;48.048;8.306;2023-02-22T06:00:21;6.30;;;2.00;;
75090;SDS011;63674;48.048;8.306;2023-02-22T06:02:54;6.70;;;2.03;;
75090;SDS011;63674;48.048;8.306;2023-02-22T06:05:23;6.67;;;2.00;;
75090;SDS011;63674;48.048;8.306;2023-02-22T06:07:53;7.00;;;2.10;;
75090;SDS011;63674;48.048;8.306;2023-02-22T06:10:22;8.20;;;2.65;;
75090;SDS011;63674;48.048;8.306;2023-02-22T06:12:51;6.88;;;2.15;;
75090;SDS011;63674;48.048;8.306;2023-02-22T06:15:20;6.03;;;2.30;;
75090;SDS011;63674;48.048;8.306;2023-02-22T06:17:52;6.80;;;2.17;;
75090;SDS011;63674;48.048;8.306;2023-02-22T06:20:22;6.60;;;2.13;;
75090;SDS011;63674;48.048;8.306;2023-02-22T06:22:53;7.65;;;2.33;;
75090;SDS011;63674;48.048;8.306;2023-02-22T06:25:24;7.95;;;2.40;;
75090;SDS011;63674;48.048;8.306;2023-02-22T06:27:56;8.05;;;2.45;;
75090;SDS011;63674;48.048;8.306;2023-02-22T06:30:25;9.60;;;2.20;;
75090;SDS011;63674;48.048;8.306;2023-02-22T06:32:57;8.90;;;2.20;;
75090;SDS011;63674;48.048;8.306;2023-02-22T06:35:25;7.50;;;2.53;;
75090;SDS011;63674;48.048;8.306;2023-02-22T06:37:54;6.00;;;2.10;;
75090;SDS011;63674;48.048;8.306;2023-02-22T06:40:23;7.85;;;2.10;;
75090;SDS011;63674;48.048;8.306;2023-02-22T06:42:55;6.90;;;2.27;;
75090;SDS011;63674;48.048;8.306;2023-02-22T06:45:25;4.88;;;1.50;;
75090;SDS011;63674;48.048;8.306;2023-02-22T06:47:54;8.95;;;2.47;;
75090;SDS011;63674;48.048;8.306;2023-02-22T06:50:24;6.60;;;2.10;;
75090;SDS011;63674;48.048;8.306;2023-02-22T06:52:55;7.68;;;2.40;;
75090;SDS011;63674;48.048;8.306;2023-02-22T06:55:26;8.53;;;2.43;;
75090;SDS011;63674;48.048;8.306;2023-02-22T06:57:57;8.60;;;2.88;;
75090;SDS011;63674;48.048;8.306;2023-02-22T07:00:26;8.63;;;2.97;;
75090;SDS011;63674;48.048;8.306;2023-02-22T07:02:57;9.20;;;3.00;;
75090;SDS011;63674;48.048;8.306;2023-02-22T07:05:31;9.70;;;2.83;;
75090;SDS011;63674;48.048;8.306;2023-02-22T07:08:01;8.37;;;2.40;;
75090;SDS011;63674;48.048;8.306;2023-02-22T07:10:33;7.30;;;2.35;;
75090;SDS011;63674;48.048;8.306;2023-02-22T07:13:04;6.95;;;2.30;;
75090;SDS011;63674;48.048;8.306;2023-02-22T07:15:34;8.23;;;2.50;;
75090;SDS011;63674;48.048;8.306;2023-02-22T07:18:04;7.05;;;2.47;;
75090;SDS011;63674;48.048;8.306;2023-02-22T07:20:34;7.13;;;2.70;;
75090;SDS011;63674;48.048;8.306;2023-02-22T07:23:02;7.60;;;2.78;;
75090;SDS011;63674;48.048;8.306;2023-02-22T07:25:33;10.32;;;2.35;;
75090;SDS011;63674;48.048;8.306;2023-02-22T07:28:02;6.25;;;2.40;;
75090;SDS011;63674;48.048;8.306;2023-02-22T07:30:31;7.32;;;2.28;;
75090;SDS011;63674;48.048;8.306;2023-02-22T07:33:01;5.80;;;2.00;;
75090;SDS011;63674;48.048;8.306;2023-02-22T07:35:34;6.70;;;2.50;;
75090;SDS011;63674;48.048;8.306;2023-02-22T07:38:05;6.50;;;2.53;;
75090;SDS011;63674;48.048;8.306;2023-02-22T07:40:34;6.20;;;2.10;;
75090;SDS011;63674;48.048;8.306;2023-02-22T07:43:08;9.18;;;2.40;;
75090;SDS011;63674;48.048;8.306;2023-02-22T07:45:42;5.97;;;2.10;;
75090;SDS011;63674;48.048;8.306;2023-02-22T07:48:11;6.35;;;2.08;;
75090;SDS011;63674;48.048;8.306;2023-02-22T07:50:44;7.22;;;2.35;;
75090;SDS011;63674;48.048;8.306;2023-02-22T07:53:14;6.70;;;2.70;;
75090;SDS011;63674;48.048;8.306;2023-02-22T07:55:45;6.90;;;2.40;;
75090;SDS011;63674;48.048;8.306;2023-02-22T07:58:17;6.50;;;2.27;;
75090;SDS011;63674;48.048;8.306;2023-02-22T08:00:49;7.85;;;2.03;;
75090;SDS011;63674;48.048;8.306;2023-02-22T08:03:18;7.88;;;2.90;;
75090;SDS011;63674;48.048;8.306;2023-02-22T08:05:51;7.43;;;2.70;;
75090;SDS011;63674;48.048;8.306;2023-02-22T08:08:21;7.28;;;2.55;;
75090;SDS011;63674;48.048;8.306;2023-02-22T08:10:51;7.53;;;2.50;;
75090;SDS011;63674;48.048;8.306;2023-02-22T08:13:20;6.70;;;2.40;;
75090;SDS011;63674;48.048;8.306;2023-02-22T08:15:50;7.22;;;2.75;;
75090;SDS011;63674;48.048;8.306;2023-02-22T08:18:20;7.88;;;3.13;;
75090;SDS011;63674;48.048;8.306;2023-02-22T08:20:52;7.22;;;2.97;;
75090;SDS011;63674;48.048;8.306;2023-02-22T08:23:22;8.47;;;2.97;;
75090;SDS011;63674;48.048;8.306;2023-02-22T08:25:53;7.88;;;2.92;;
75090;SDS011;63674;48.048;8.306;2023-02-22T08:28:22;6.72;;;2.70;;
75090;SDS011;63674;48.048;8.306;2023-02-22T08:30:51;7.60;;;3.08;;
75090;SDS011;63674;48.048;8.306;2023-02-22T08:33:20;8.48;;;3.80;;
75090;SDS011;63674;48.048;8.306;2023-02-22T08:35:51;7.07;;;3.27;;
75090;SDS011;63674;48.048;8.306;2023-02-22T08:38:20;8.50;;;3.63;;
75090;SDS011;63674;48.048;8.306;2023-02-22T08:40:53;9.27;;;4.20;;
75090;SDS011;63674;48.048;8.306;2023-02-22T08:43:22;8.32;;;3.72;;
75090;SDS011;63674;48.048;8.306;2023-02-22T08:45:51;8.55;;;3.75;;
75090;SDS011;63674;48.048;8.306;2023-02-22T08:48:23;10.40;;;4.47;;
75090;SDS011;63674;48.048;8.306;2023-02-22T08:50:52;16.25;;;7.35;;
75090;SDS011;63674;48.048;8.306;2023-02-22T08:53:24;33.58;;;17.27;;
75090;SDS011;63674;48.048;8.306;2023-02-22T08:55:53;48.10;;;23.52;;
75090;SDS011;63674;48.048;8.306;2023-02-22T08:58:22;32.28;;;14.02;;
75090;SDS011;63674;48.048;8.306;2023-02-22T09:00:51;76.60;;;29.10;;
75090;SDS011;63674;48.048;8.306;2023-02-22T09:03:19;106.72;;;40.30;;
75090;SDS011;63674;48.048;8.306;2023-02-22T09:05:48;74.97;;;31.80;;
75090;SDS011;63674;48.048;8.306;2023-02-22T09:08:20;40.63;;;17.90;;
75090;SDS011;63674;48.048;8.306;2023-02-22T09:10:49;28.30;;;12.32;;
75090;SDS011;63674;48.048;8.306;2023-02-22T09:13:18;19.97;;;7.83;;
75090;SDS011;63674;48.048;8.306;2023-02-22T09:15:46;22.00;;;9.52;;
75090;SDS011;63674;48.048;8.306;2023-02-22T09:18:15;20.20;;;9.23;;
75090;SDS011;63674;48.048;8.306;2023-02-22T09:20:45;15.77;;;7.90;;
75090;SDS011;63674;48.048;8.306;2023-02-22T09:23:14;16.52;;;7.10;;
75090;SDS011;63674;48.048;8.306;2023-02-22T09:25:44;20.40;;;7.93;;
75090;SDS011;63674;48.048;8.306;2023-02-22T09:28:12;16.52;;;7.05;;
75090;SDS011;63674;48.048;8.306;2023-02-22T09:30:41;25.35;;;9.57;;
75090;SDS011;63674;48.048;8.306;2023-02-22T09:33:12;21.13;;;10.30;;
75090;SDS011;63674;48.048;8.306;2023-02-22T09:35:44;16.63;;;9.60;;
75090;SDS011;63674;48.048;8.306;2023-02-22T09:38:15;25.73;;;11.03;;
75090;SDS011;63674;48.048;8.306;2023-02-22T09:40:51;17.13;;;9.57;;
75090;SDS011;63674;48.048;8.306;2023-02-22T09:43:29;18.02;;;9.77;;
75090;SDS011;63674;48.048;8.306;2023-02-22T09:46:12;18.67;;;9.55;;
75090;SDS011;63674;48.048;8.306;2023-02-22T09:48:58;19.17;;;8.98;;
75090;SDS011;63674;48.048;8.306;2023-02-22T09:51:33;21.90;;;8.70;;
75090;SDS011;63674;48.048;8.306;2023-02-22T09:54:13;22.25;;;9.70;;
75090;SDS011;63674;48.048;8.306;2023-02-22T09:56:52;18.40;;;6.72;;
75090;SDS011;63674;48.048;8.306;2023-02-22T09:59:28;14.38;;;6.00;;
75090;SDS011;63674;48.048;8.306;2023-02-22T10:02:01;30.75;;;15.88;;
75090;SDS011;63674;48.048;8.306;2023-02-22T10:04:46;33.60;;;18.67;;
75090;SDS011;63674;48.048;8.306;2023-02-22T10:07:22;25.90;;;12.90;;
75090;SDS011;63674;48.048;8.306;2023-02-22T10:09:56;26.55;;;14.77;;
75090;SDS011;63674;48.048;8.306;2023-02-22T10:12:35;21.67;;;11.13;;
75090;SDS011;63674;48.048;8.306;2023-02-22T10:15:21;14.50;;;6.25;;
75090;SDS011;63674;48.048;8.306;2023-02-22T10:18:24;13.97;;;4.30;;
75090;SDS011;63674;48.048;8.306;2023-02-22T10:21:36;11.18;;;4.90;;
75090;SDS011;63674;48.048;8.306;2023-02-22T10:24:22;13.25;;;4.65;;
75090;SDS011;63674;48.048;8.306;2023-02-22T10:27:05;12.48;;;4.85;;
75090;SDS011;63674;48.048;8.306;2023-02-22T10:29:45;12.48;;;4.80;;
75090;SDS011;63674;48.048;8.306;2023-02-22T10:32:20;14.10;;;5.07;;
75090;SDS011;63674;48.048;8.306;2023-02-22T10:34:55;12.70;;;5.00;;
75090;SDS011;63674;48.048;8.306;2023-02-22T10:37:27;13.40;;;5.30;;
75090;SDS011;63674;48.048;8.306;2023-02-22T10:39:58;11.60;;;5.07;;
75090;SDS011;63674;48.048;8.306;2023-02-22T10:42:37;11.98;;;4.90;;
75090;SDS011;63674;48.048;8.306;2023-02-22T10:45:15;12.83;;;4.97;;
75090;SDS011;63674;48.048;8.306;2023-02-22T10:47:49;11.15;;;4.85;;
75090;SDS011;63674;48.048;8.306;2023-02-22T10:50:43;12.05;;;4.88;;
75090;SDS011;63674;48.048;8.306;2023-02-22T10:53:13;13.65;;;6.00;;
75090;SDS011;63674;48.048;8.306;2023-02-22T10:58:45;13.17;;;6.53;;
75090;SDS011;63674;48.048;8.306;2023-02-22T11:01:20;12.70;;;5.78;;
75090;SDS011;63674;48.048;8.306;2023-02-22T11:03:59;11.73;;;5.93;;
75090;SDS011;63674;48.048;8.306;2023-02-22T11:06:40;12.00;;;5.00;;
75090;SDS011;63674;48.048;8.306;2023-02-22T11:09:12;18.65;;;9.40;;
75090;SDS011;63674;48.048;8.306;2023-02-22T11:11:44;13.13;;;5.80;;
75090;SDS011;63674;48.048;8.306;2023-02-22T11:14:23;13.15;;;5.63;;
75090;SDS011;63674;48.048;8.306;2023-02-22T11:16:55;11.52;;;5.45;;
75090;SDS011;63674;48.048;8.306;2023-02-22T11:19:26;11.20;;;5.00;;
75090;SDS011;63674;48.048;8.306;2023-02-22T11:22:09;14.02;;;5.80;;
75090;SDS011;63674;48.048;8.306;2023-02-22T11:24:44;10.47;;;4.80;;
75090;SDS011;63674;48.048;8.306;2023-02-22T11:27:25;10.48;;;5.07;;
75090;SDS011;63674;48.048;8.306;2023-02-22T11:30:18;11.10;;;4.80;;
75090;SDS011;63674;48.048;8.306;2023-02-22T11:32:56;11.15;;;5.60;;
75090;SDS011;63674;48.048;8.306;2023-02-22T11:35:32;13.13;;;5.22;;
75090;SDS011;63674;48.048;8.306;2023-02-22T11:38:14;10.57;;;4.77;;
75090;SDS011;63674;48.048;8.306;2023-02-22T11:40:48;10.07;;;4.55;;
75090;SDS011;63674;48.048;8.306;2023-02-22T11:43:41;11.68;;;4.80;;
75090;SDS011;63674;48.048;8.306;2023-02-22T11:46:12;13.20;;;5.70;;
75090;SDS011;63674;48.048;8.306;2023-02-22T11:48:46;13.88;;;6.60;;
75090;SDS011;63674;48.048;8.306;2023-02-22T11:51:27;10.23;;;5.07;;
75090;SDS011;63674;48.048;8.306;2023-02-22T11:54:09;52.70;;;23.20;;
75090;SDS011;63674;48.048;8.306;2023-02-22T11:56:59;17.77;;;8.05;;
75090;SDS011;63674;48.048;8.306;2023-02-22T11:59:52;16.10;;;6.38;;
75090;SDS011;63674;48.048;8.306;2023-02-22T12:02:45;12.95;;;5.90;;
75090;SDS011;63674;48.048;8.306;2023-02-22T12:05:31;12.57;;;6.17;;
75090;SDS011;63674;48.048;8.306;2023-02-22T12:08:27;10.95;;;5.38;;
75090;SDS011;63674;48.048;8.306;2023-02-22T12:11:05;10.77;;;5.30;;
75090;SDS011;63674;48.048;8.306;2023-02-22T12:13:42;11.00;;;5.78;;
75090;SDS011;63674;48.048;8.306;2023-02-22T12:16:27;10.98;;;5.22;;
75090;SDS011;63674;48.048;8.306;2023-02-22T12:19:14;11.80;;;5.30;;
75090;SDS011;63674;48.048;8.306;2023-02-22T12:21:56;12.90;;;5.47;;
75090;SDS011;63674;48.048;8.306;2023-02-22T12:24:29;16.02;;;6.43;;
75090;SDS011;63674;48.048;8.306;2023-02-22T12:27:06;14.77;;;6.60;;
75090;SDS011;63674;48.048;8.306;2023-02-22T12:29:40;12.60;;;6.30;;
75090;SDS011;63674;48.048;8.306;2023-02-22T12:32:14;12.93;;;6.70;;
75090;SDS011;63674;48.048;8.306;2023-02-22T12:34:58;13.48;;;7.32;;
75090;SDS011;63674;48.048;8.306;2023-02-22T12:37:33;11.73;;;6.05;;
75090;SDS011;63674;48.048;8.306;2023-02-22T12:40:17;12.32;;;6.20;;
75090;SDS011;63674;48.048;8.306;2023-02-22T12:42:52;12.65;;;6.22;;
75090;SDS011;63674;48.048;8.306;2023-02-22T12:45:29;12.67;;;6.07;;
75090;SDS011;63674;48.048;8.306;2023-02-22T12:48:06;11.90;;;5.47;;
75090;SDS011;63674;48.048;8.306;2023-02-22T12:50:52;12.40;;;5.13;;
75090;SDS011;63674;48.048;8.306;2023-02-22T12:53:28;10.00;;;4.90;;
75090;SDS011;63674;48.048;8.306;2023-02-22T12:56:08;9.98;;;4.95;;
75090;SDS011;63674;48.048;8.306;2023-02-22T12:58:48;13.07;;;5.23;;
75090;SDS011;63674;48.048;8.306;2023-02-22T13:01:24;11.55;;;5.95;;
75090;SDS011;63674;48.048;8.306;2023-02-22T13:03:59;11.27;;;5.30;;
75090;SDS011;63674;48.048;8.306;2023-02-22T13:06:48;12.57;;;6.18;;
75090;SDS011;63674;48.048;8.306;2023-02-22T13:12:37;17.77;;;7.80;;
75090;SDS011;63674;48.048;8.306;2023-02-22T13:15:14;26.67;;;12.85;;
75090;SDS011;63674;48.048;8.306;2023-02-22T13:17:50;117.32;;;53.08;;
75090;SDS011;63674;48.048;8.306;2023-02-22T13:20:28;31.23;;;16.33;;
75090;SDS011;63674;48.048;8.306;2023-02-22T13:23:02;11.43;;;4.65;;
75090;SDS011;63674;48.048;8.306;2023-02-22T13:25:39;15.03;;;5.07;;
75090;SDS011;63674;48.048;8.306;2023-02-22T13:28:22;15.45;;;5.60;;
75090;SDS011;63674;48.048;8.306;2023-02-22T13:31:11;11.18;;;5.32;;
75090;SDS011;63674;48.048;8.306;2023-02-22T13:34:08;10.63;;;5.32;;
75090;SDS011;63674;48.048;8.306;2023-02-22T13:37:03;14.73;;;5.90;;
75090;SDS011;63674;48.048;8.306;2023-02-22T13:40:15;13.50;;;6.47;;
75090;SDS011;63674;48.048;8.306;2023-02-22T13:49:45;12.80;;;6.35;;
75090;SDS011;63674;48.048;8.306;2023-02-22T13:52:25;19.23;;;9.18;;
75090;SDS011;63674;48.048;8.306;2023-02-22T13:54:58;14.40;;;7.07;;
75090;SDS011;63674;48.048;8.306;2023-02-22T13:57:31;18.00;;;8.10;;
75090;SDS011;63674;48.048;8.306;2023-02-22T14:00:21;18.30;;;10.25;;
75090;SDS011;63674;48.048;8.306;2023-02-22T14:03:17;21.05;;;10.85;;
75090;SDS011;63674;48.048;8.306;2023-02-22T14:06:07;19.20;;;11.18;;
75090;SDS011;63674;48.048;8.306;2023-02-22T14:08:41;14.43;;;8.00;;
75090;SDS011;63674;48.048;8.306;2023-02-22T14:14:22;16.45;;;8.43;;
75090;SDS011;63674;48.048;8.306;2023-02-22T14:20:01;18.23;;;8.98;;
75090;SDS011;63674;48.048;8.306;2023-02-22T14:22:47;15.83;;;8.10;;
75090;SDS011;63674;48.048;8.306;2023-02-22T14:25:32;17.92;;;9.02;;
75090;SDS011;63674;48.048;8.306;2023-02-22T14:28:05;18.23;;;8.95;;
75090;SDS011;63674;48.048;8.306;2023-02-22T14:30:37;19.65;;;9.27;;
75090;SDS011;63674;48.048;8.306;2023-02-22T14:36:18;17.70;;;8.50;;
75090;SDS011;63674;48.048;8.306;2023-02-22T14:38:49;20.88;;;9.10;;
75090;SDS011;63674;48.048;8.306;2023-02-22T14:41:20;18.25;;;9.07;;
75090;SDS011;63674;48.048;8.306;2023-02-22T14:43:52;18.73;;;9.30;;
75090;SDS011;63674;48.048;8.306;2023-02-22T14:46:23;20.85;;;9.30;;
75090;SDS011;63674;48.048;8.306;2023-02-22T14:48:58;15.70;;;8.53;;
75090;SDS011;63674;48.048;8.306;2023-02-22T14:51:33;20.23;;;9.68;;
75090;SDS011;63674;48.048;8.306;2023-02-22T14:54:10;19.90;;;9.80;;
75090;SDS011;63674;48.048;8.306;2023-02-22T14:56:50;21.45;;;9.90;;
75090;SDS011;63674;48.048;8.306;2023-02-22T14:59:25;39.63;;;19.95;;
75090;SDS011;63674;48.048;8.306;2023-02-22T15:04:50;49.25;;;20.45;;
75090;SDS011;63674;48.048;8.306;2023-02-22T15:07:23;25.02;;;11.88;;
75090;SDS011;63674;48.048;8.306;2023-02-22T15:10:04;21.55;;;9.48;;
75090;SDS011;63674;48.048;8.306;2023-02-22T15:12:49;22.90;;;9.77;;
75090;SDS011;63674;48.048;8.306;2023-02-22T15:15:21;21.57;;;10.07;;
75090;SDS011;63674;48.048;8.306;2023-02-22T15:17:53;20.50;;;10.63;;
75090;SDS011;63674;48.048;8.306;2023-02-22T15:20:24;18.10;;;9.65;;
75090;SDS011;63674;48.048;8.306;2023-02-22T15:22:57;22.08;;;10.10;;
75090;SDS011;63674;48.048;8.306;2023-02-22T15:25:27;19.80;;;10.32;;
75090;SDS011;63674;48.048;8.306;2023-02-22T15:28:01;21.10;;;9.67;;
75090;SDS011;63674;48.048;8.306;2023-02-22T15:30:34;25.88;;;10.68;;
75090;SDS011;63674;48.048;8.306;2023-02-22T15:33:10;21.08;;;9.13;;
75090;SDS011;63674;48.048;8.306;2023-02-22T15:35:44;19.60;;;10.32;;
75090;SDS011;63674;48.048;8.306;2023-02-22T15:38:25;18.08;;;9.43;;
75090;SDS011;63674;48.048;8.306;2023-02-22T15:40:59;18.97;;;9.20;;
75090;SDS011;63674;48.048;8.306;2023-02-22T15:43:29;20.30;;;9.88;;
75090;SDS011;63674;48.048;8.306;2023-02-22T15:45:59;26.50;;;14.48;;
75090;SDS011;63674;48.048;8.306;2023-02-22T15:48:28;17.92;;;10.05;;
75090;SDS011;63674;48.048;8.306;2023-02-22T15:51:01;22.30;;;11.90;;
75090;SDS011;63674;48.048;8.306;2023-02-22T15:53:39;41.23;;;20.33;;